sensor_id;sensor_type;location;lat;lon;timestamp;P1;durP1;ratioP1;P2;durP2;ratioP2
44000;SDS011;29660;42.892;24.710;2024-03-25T00:00:11;8.88;;;6.28;;
44000;SDS011;29660;42.892;24.710;2024-03-25T00:05:34;9.45;;;7.03;;
44000;SDS011;29660;42.892;24.710;2024-03-25T00:10:55;11.57;;;8.15;;
44000;SDS011;29660;42.892;24.710;2024-03-25T00:16:16;10.55;;;8.88;;
44000;SDS011;29660;42.892;24.710;2024-03-25T00:21:38;11.45;;;8.07;;
44000;SDS011;29660;42.892;24.710;2024-03-25T00:26:59;7.88;;;6.60;;
44000;SDS011;29660;42.892;24.710;2024-03-25T00:32:20;6.00;;;4.32;;
44000;SDS011;29660;42.892;24.710;2024-03-25T00:37:41;3.80;;;3.40;;
44000;SDS011;29660;42.892;24.710;2024-03-25T00:43:02;3.20;;;2.88;;
44000;SDS011;29660;42.892;24.710;2024-03-25T00:48:24;7.10;;;4.30;;
44000;SDS011;29660;42.892;24.710;2024-03-25T00:53:45;4.95;;;2.80;;
44000;SDS011;29660;42.892;24.710;2024-03-25T00:59:06;6.13;;;3.60;;
44000;SDS011;29660;42.892;24.710;2024-03-25T01:04:28;3.05;;;1.95;;
44000;SDS011;29660;42.892;24.710;2024-03-25T01:09:49;10.77;;;5.68;;
44000;SDS011;29660;42.892;24.710;2024-03-25T01:15:10;1.33;;;1.02;;
44000;SDS011;29660;42.892;24.710;2024-03-25T01:20:32;3.17;;;1.50;;
44000;SDS011;29660;42.892;24.710;2024-03-25T01:25:54;1.80;;;1.33;;
44000;SDS011;29660;42.892;24.710;2024-03-25T01:31:15;4.03;;;0.73;;
44000;SDS011;29660;42.892;24.710;2024-03-25T01:36:36;2.45;;;1.80;;
44000;SDS011;29660;42.892;24.710;2024-03-25T01:41:58;5.22;;;2.97;;
44000;SDS011;29660;42.892;24.710;2024-03-25T01:47:19;4.43;;;3.13;;
44000;SDS011;29660;42.892;24.710;2024-03-25T01:52:40;1.30;;;1.10;;
44000;SDS011;29660;42.892;24.710;2024-03-25T01:58:02;1.98;;;0.95;;
44000;SDS011;29660;42.892;24.710;2024-03-25T02:03:25;3.00;;;2.72;;
44000;SDS011;29660;42.892;24.710;2024-03-25T02:08:48;8.00;;;5.75;;
44000;SDS011;29660;42.892;24.710;2024-03-25T02:14:11;10.20;;;8.60;;
44000;SDS011;29660;42.892;24.710;2024-03-25T02:19:33;4.68;;;2.95;;
44000;SDS011;29660;42.892;24.710;2024-03-25T02:24:56;3.22;;;1.20;;
44000;SDS011;29660;42.892;24.710;2024-03-25T02:30:19;2.80;;;0.70;;
44000;SDS011;29660;42.892;24.710;2024-03-25T02:35:41;0.50;;;0.40;;
44000;SDS011;29660;42.892;24.710;2024-03-25T02:41:03;0.63;;;0.60;;
44000;SDS011;29660;42.892;24.710;2024-03-25T02:46:24;3.17;;;1.88;;
44000;SDS011;29660;42.892;24.710;2024-03-25T02:51:45;1.80;;;0.77;;
44000;SDS011;29660;42.892;24.710;2024-03-25T02:57:06;3.22;;;0.85;;
44000;SDS011;29660;42.892;24.710;2024-03-25T03:02:28;1.10;;;1.00;;
44000;SDS011;29660;42.892;24.710;2024-03-25T03:07:49;0.98;;;0.68;;
44000;SDS011;29660;42.892;24.710;2024-03-25T03:13:10;3.80;;;1.83;;
44000;SDS011;29660;42.892;24.710;2024-03-25T03:18:32;3.00;;;2.70;;
44000;SDS011;29660;42.892;24.710;2024-03-25T03:23:53;2.53;;;2.20;;
44000;SDS011;29660;42.892;24.710;2024-03-25T03:29:14;2.88;;;2.22;;
44000;SDS011;29660;42.892;24.710;2024-03-25T03:34:35;1.40;;;1.10;;
44000;SDS011;29660;42.892;24.710;2024-03-25T03:39:57;1.40;;;1.08;;
44000;SDS011;29660;42.892;24.710;2024-03-25T03:45:18;2.55;;;2.20;;
44000;SDS011;29660;42.892;24.710;2024-03-25T03:50:39;3.25;;;2.00;;
44000;SDS011;29660;42.892;24.710;2024-03-25T03:56:01;2.97;;;2.33;;
44000;SDS011;29660;42.892;24.710;2024-03-25T04:01:25;2.83;;;2.42;;
44000;SDS011;29660;42.892;24.710;2024-03-25T04:06:46;3.10;;;2.72;;
44000;SDS011;29660;42.892;24.710;2024-03-25T04:12:07;3.53;;;2.45;;
44000;SDS011;29660;42.892;24.710;2024-03-25T04:17:28;9.07;;;7.90;;
44000;SDS011;29660;42.892;24.710;2024-03-25T04:22:49;4.88;;;2.92;;
44000;SDS011;29660;42.892;24.710;2024-03-25T04:28:11;6.07;;;4.63;;
44000;SDS011;29660;42.892;24.710;2024-03-25T04:33:32;8.85;;;7.75;;
44000;SDS011;29660;42.892;24.710;2024-03-25T04:38:53;9.40;;;7.95;;
44000;SDS011;29660;42.892;24.710;2024-03-25T04:44:14;8.38;;;7.57;;
44000;SDS011;29660;42.892;24.710;2024-03-25T04:49:35;16.33;;;12.52;;
44000;SDS011;29660;42.892;24.710;2024-03-25T04:54:58;16.85;;;13.60;;
44000;SDS011;29660;42.892;24.710;2024-03-25T05:00:19;12.77;;;9.70;;
44000;SDS011;29660;42.892;24.710;2024-03-25T05:05:41;12.35;;;8.93;;
44000;SDS011;29660;42.892;24.710;2024-03-25T05:11:02;13.45;;;9.48;;
44000;SDS011;29660;42.892;24.710;2024-03-25T05:16:23;15.27;;;10.82;;
44000;SDS011;29660;42.892;24.710;2024-03-25T05:21:44;10.18;;;8.18;;
44000;SDS011;29660;42.892;24.710;2024-03-25T05:27:05;10.90;;;9.48;;
44000;SDS011;29660;42.892;24.710;2024-03-25T05:32:27;14.50;;;12.20;;
44000;SDS011;29660;42.892;24.710;2024-03-25T05:37:48;14.20;;;11.05;;
44000;SDS011;29660;42.892;24.710;2024-03-25T05:43:09;30.08;;;21.50;;
44000;SDS011;29660;42.892;24.710;2024-03-25T05:48:30;20.52;;;14.45;;
44000;SDS011;29660;42.892;24.710;2024-03-25T05:53:52;33.47;;;26.77;;
44000;SDS011;29660;42.892;24.710;2024-03-25T05:59:14;15.50;;;10.98;;
44000;SDS011;29660;42.892;24.710;2024-03-25T06:04:35;15.85;;;12.80;;
44000;SDS011;29660;42.892;24.710;2024-03-25T06:09:56;16.33;;;12.77;;
44000;SDS011;29660;42.892;24.710;2024-03-25T06:15:17;21.83;;;16.55;;
44000;SDS011;29660;42.892;24.710;2024-03-25T06:20:38;23.88;;;17.48;;
44000;SDS011;29660;42.892;24.710;2024-03-25T06:26:00;16.00;;;13.13;;
44000;SDS011;29660;42.892;24.710;2024-03-25T06:31:21;25.42;;;18.17;;
44000;SDS011;29660;42.892;24.710;2024-03-25T06:37:00;20.60;;;15.63;;
44000;SDS011;29660;42.892;24.710;2024-03-25T06:42:22;20.20;;;15.00;;
44000;SDS011;29660;42.892;24.710;2024-03-25T06:47:43;20.42;;;15.85;;
44000;SDS011;29660;42.892;24.710;2024-03-25T06:53:04;12.63;;;9.00;;
44000;SDS011;29660;42.892;24.710;2024-03-25T06:58:26;28.92;;;20.85;;
44000;SDS011;29660;42.892;24.710;2024-03-25T07:03:48;29.83;;;21.65;;
44000;SDS011;29660;42.892;24.710;2024-03-25T07:09:09;18.70;;;12.80;;
44000;SDS011;29660;42.892;24.710;2024-03-25T07:14:32;18.02;;;14.40;;
44000;SDS011;29660;42.892;24.710;2024-03-25T07:19:53;23.80;;;16.67;;
44000;SDS011;29660;42.892;24.710;2024-03-25T07:25:14;15.48;;;10.63;;
44000;SDS011;29660;42.892;24.710;2024-03-25T07:30:35;13.68;;;10.30;;
44000;SDS011;29660;42.892;24.710;2024-03-25T07:35:57;12.95;;;9.80;;
44000;SDS011;29660;42.892;24.710;2024-03-25T07:41:18;12.20;;;9.68;;
44000;SDS011;29660;42.892;24.710;2024-03-25T07:46:39;11.90;;;9.15;;
44000;SDS011;29660;42.892;24.710;2024-03-25T07:52:00;14.27;;;11.45;;
44000;SDS011;29660;42.892;24.710;2024-03-25T07:57:22;12.20;;;10.30;;
44000;SDS011;29660;42.892;24.710;2024-03-25T08:02:43;14.48;;;11.75;;
44000;SDS011;29660;42.892;24.710;2024-03-25T08:08:04;13.63;;;11.70;;
44000;SDS011;29660;42.892;24.710;2024-03-25T08:13:26;17.58;;;13.45;;
44000;SDS011;29660;42.892;24.710;2024-03-25T08:18:47;25.35;;;18.02;;
44000;SDS011;29660;42.892;24.710;2024-03-25T08:24:08;21.88;;;16.90;;
44000;SDS011;29660;42.892;24.710;2024-03-25T08:29:30;20.20;;;15.23;;
44000;SDS011;29660;42.892;24.710;2024-03-25T08:34:51;14.82;;;11.70;;
44000;SDS011;29660;42.892;24.710;2024-03-25T08:40:12;26.70;;;18.25;;
44000;SDS011;29660;42.892;24.710;2024-03-25T08:45:33;14.32;;;11.27;;
44000;SDS011;29660;42.892;24.710;2024-03-25T08:50:54;15.20;;;12.23;;
44000;SDS011;29660;42.892;24.710;2024-03-25T08:56:15;16.58;;;12.63;;
44000;SDS011;29660;42.892;24.710;2024-03-25T09:01:36;20.33;;;15.98;;
44000;SDS011;29660;42.892;24.710;2024-03-25T09:06:58;27.13;;;19.27;;
44000;SDS011;29660;42.892;24.710;2024-03-25T09:12:19;19.52;;;15.77;;
44000;SDS011;29660;42.892;24.710;2024-03-25T09:17:40;28.38;;;21.55;;
44000;SDS011;29660;42.892;24.710;2024-03-25T09:23:01;22.67;;;18.15;;
44000;SDS011;29660;42.892;24.710;2024-03-25T09:28:23;27.38;;;20.02;;
44000;SDS011;29660;42.892;24.710;2024-03-25T09:33:44;32.97;;;23.58;;
44000;SDS011;29660;42.892;24.710;2024-03-25T09:39:05;29.80;;;23.05;;
44000;SDS011;29660;42.892;24.710;2024-03-25T09:44:26;18.35;;;14.35;;
44000;SDS011;29660;42.892;24.710;2024-03-25T09:49:51;26.20;;;19.30;;
44000;SDS011;29660;42.892;24.710;2024-03-25T09:55:15;37.33;;;28.48;;
44000;SDS011;29660;42.892;24.710;2024-03-25T10:00:37;20.30;;;16.27;;
44000;SDS011;29660;42.892;24.710;2024-03-25T10:05:58;20.65;;;14.98;;
44000;SDS011;29660;42.892;24.710;2024-03-25T10:11:19;14.95;;;10.18;;
44000;SDS011;29660;42.892;24.710;2024-03-25T10:16:40;19.23;;;14.50;;
44000;SDS011;29660;42.892;24.710;2024-03-25T10:22:05;9.02;;;7.55;;
44000;SDS011;29660;42.892;24.710;2024-03-25T10:27:28;9.52;;;6.78;;
44000;SDS011;29660;42.892;24.710;2024-03-25T10:38:20;11.07;;;8.60;;
44000;SDS011;29660;42.892;24.710;2024-03-25T10:43:46;8.85;;;6.53;;
44000;SDS011;29660;42.892;24.710;2024-03-25T10:49:14;12.07;;;6.78;;
44000;SDS011;29660;42.892;24.710;2024-03-25T10:54:47;4.90;;;3.55;;
44000;SDS011;29660;42.892;24.710;2024-03-25T11:00:10;7.72;;;5.50;;
44000;SDS011;29660;42.892;24.710;2024-03-25T11:05:35;9.52;;;6.95;;
44000;SDS011;29660;42.892;24.710;2024-03-25T11:10:57;10.13;;;6.72;;
44000;SDS011;29660;42.892;24.710;2024-03-25T11:16:31;15.55;;;10.55;;
44000;SDS011;29660;42.892;24.710;2024-03-25T11:21:53;5.00;;;4.05;;
44000;SDS011;29660;42.892;24.710;2024-03-25T11:27:14;8.32;;;5.05;;
44000;SDS011;29660;42.892;24.710;2024-03-25T11:32:46;9.90;;;6.20;;
44000;SDS011;29660;42.892;24.710;2024-03-25T11:38:12;5.75;;;3.55;;
44000;SDS011;29660;42.892;24.710;2024-03-25T11:43:33;2.15;;;1.80;;
44000;SDS011;29660;42.892;24.710;2024-03-25T11:48:54;2.53;;;1.80;;
44000;SDS011;29660;42.892;24.710;2024-03-25T11:54:16;3.53;;;2.65;;
44000;SDS011;29660;42.892;24.710;2024-03-25T11:59:37;5.20;;;3.22;;
44000;SDS011;29660;42.892;24.710;2024-03-25T12:04:59;2.60;;;2.05;;
44000;SDS011;29660;42.892;24.710;2024-03-25T12:10:20;2.60;;;2.10;;
44000;SDS011;29660;42.892;24.710;2024-03-25T12:16:01;4.80;;;3.20;;
44000;SDS011;29660;42.892;24.710;2024-03-25T12:21:23;4.05;;;3.30;;
44000;SDS011;29660;42.892;24.710;2024-03-25T12:26:45;3.97;;;3.05;;
44000;SDS011;29660;42.892;24.710;2024-03-25T12:32:09;2.78;;;2.42;;
44000;SDS011;29660;42.892;24.710;2024-03-25T12:37:30;8.13;;;5.13;;
44000;SDS011;29660;42.892;24.710;2024-03-25T12:42:52;4.20;;;3.17;;
44000;SDS011;29660;42.892;24.710;2024-03-25T12:48:13;3.65;;;3.15;;
44000;SDS011;29660;42.892;24.710;2024-03-25T12:53:34;6.95;;;2.80;;
44000;SDS011;29660;42.892;24.710;2024-03-25T12:58:56;2.60;;;2.30;;
44000;SDS011;29660;42.892;24.710;2024-03-25T13:04:17;2.67;;;2.30;;
44000;SDS011;29660;42.892;24.710;2024-03-25T13:09:38;15.82;;;11.15;;
44000;SDS011;29660;42.892;24.710;2024-03-25T13:14:59;2.00;;;1.80;;
44000;SDS011;29660;42.892;24.710;2024-03-25T13:20:21;9.95;;;7.95;;
44000;SDS011;29660;42.892;24.710;2024-03-25T13:25:42;3.60;;;3.30;;
44000;SDS011;29660;42.892;24.710;2024-03-25T13:31:03;4.18;;;2.30;;
44000;SDS011;29660;42.892;24.710;2024-03-25T13:36:25;109.72;;;88.80;;
44000;SDS011;29660;42.892;24.710;2024-03-25T13:41:46;6.05;;;3.95;;
44000;SDS011;29660;42.892;24.710;2024-03-25T13:47:08;3.72;;;2.85;;
44000;SDS011;29660;42.892;24.710;2024-03-25T13:52:30;4.25;;;3.85;;
44000;SDS011;29660;42.892;24.710;2024-03-25T13:57:51;4.43;;;2.90;;
44000;SDS011;29660;42.892;24.710;2024-03-25T14:03:13;3.55;;;3.20;;
44000;SDS011;29660;42.892;24.710;2024-03-25T14:08:35;3.65;;;2.80;;
44000;SDS011;29660;42.892;24.710;2024-03-25T14:13:56;4.03;;;2.38;;
44000;SDS011;29660;42.892;24.710;2024-03-25T14:19:18;3.10;;;2.80;;
44000;SDS011;29660;42.892;24.710;2024-03-25T14:24:39;7.22;;;5.93;;
44000;SDS011;29660;42.892;24.710;2024-03-25T14:30:00;6.55;;;4.18;;
44000;SDS011;29660;42.892;24.710;2024-03-25T14:35:21;3.00;;;2.15;;
44000;SDS011;29660;42.892;24.710;2024-03-25T14:40:43;9.02;;;7.30;;
44000;SDS011;29660;42.892;24.710;2024-03-25T14:46:04;5.32;;;3.67;;
44000;SDS011;29660;42.892;24.710;2024-03-25T14:51:25;2.83;;;2.30;;
44000;SDS011;29660;42.892;24.710;2024-03-25T14:56:46;3.22;;;2.70;;
44000;SDS011;29660;42.892;24.710;2024-03-25T15:02:08;3.88;;;3.25;;
44000;SDS011;29660;42.892;24.710;2024-03-25T15:07:33;5.13;;;3.53;;
44000;SDS011;29660;42.892;24.710;2024-03-25T15:12:54;15.05;;;11.35;;
44000;SDS011;29660;42.892;24.710;2024-03-25T15:18:15;9.52;;;7.97;;
44000;SDS011;29660;42.892;24.710;2024-03-25T15:23:37;9.02;;;4.15;;
44000;SDS011;29660;42.892;24.710;2024-03-25T15:28:58;4.40;;;3.10;;
44000;SDS011;29660;42.892;24.710;2024-03-25T15:34:19;6.75;;;4.90;;
44000;SDS011;29660;42.892;24.710;2024-03-25T15:39:40;20.50;;;14.02;;
44000;SDS011;29660;42.892;24.710;2024-03-25T15:45:02;20.00;;;13.13;;
44000;SDS011;29660;42.892;24.710;2024-03-25T15:50:23;19.52;;;12.98;;
44000;SDS011;29660;42.892;24.710;2024-03-25T15:55:45;18.10;;;11.25;;
44000;SDS011;29660;42.892;24.710;2024-03-25T16:01:06;8.93;;;5.93;;
44000;SDS011;29660;42.892;24.710;2024-03-25T16:06:27;38.20;;;27.25;;
44000;SDS011;29660;42.892;24.710;2024-03-25T16:11:48;16.52;;;11.88;;
44000;SDS011;29660;42.892;24.710;2024-03-25T16:17:10;22.77;;;13.90;;
44000;SDS011;29660;42.892;24.710;2024-03-25T16:22:31;36.63;;;20.60;;
44000;SDS011;29660;42.892;24.710;2024-03-25T16:27:53;47.15;;;28.45;;
44000;SDS011;29660;42.892;24.710;2024-03-25T16:33:14;56.25;;;35.20;;
44000;SDS011;29660;42.892;24.710;2024-03-25T16:38:36;51.70;;;38.83;;
44000;SDS011;29660;42.892;24.710;2024-03-25T16:43:57;73.05;;;51.53;;
44000;SDS011;29660;42.892;24.710;2024-03-25T16:49:18;153.93;;;101.68;;
44000;SDS011;29660;42.892;24.710;2024-03-25T16:54:40;241.75;;;162.90;;
44000;SDS011;29660;42.892;24.710;2024-03-25T17:00:02;186.75;;;118.75;;
44000;SDS011;29660;42.892;24.710;2024-03-25T17:05:28;166.77;;;110.10;;
44000;SDS011;29660;42.892;24.710;2024-03-25T17:10:51;85.03;;;65.30;;
44000;SDS011;29660;42.892;24.710;2024-03-25T17:16:12;58.30;;;41.13;;
44000;SDS011;29660;42.892;24.710;2024-03-25T17:21:33;76.07;;;48.65;;
44000;SDS011;29660;42.892;24.710;2024-03-25T17:26:54;53.10;;;37.65;;
44000;SDS011;29660;42.892;24.710;2024-03-25T17:32:15;48.10;;;34.45;;
44000;SDS011;29660;42.892;24.710;2024-03-25T17:37:37;57.00;;;37.80;;
44000;SDS011;29660;42.892;24.710;2024-03-25T17:42:58;90.85;;;51.35;;
44000;SDS011;29660;42.892;24.710;2024-03-25T17:48:22;75.40;;;44.97;;
44000;SDS011;29660;42.892;24.710;2024-03-25T17:53:43;76.47;;;52.72;;
44000;SDS011;29660;42.892;24.710;2024-03-25T17:59:04;80.05;;;49.58;;
44000;SDS011;29660;42.892;24.710;2024-03-25T18:04:25;64.13;;;43.78;;
44000;SDS011;29660;42.892;24.710;2024-03-25T18:09:46;100.57;;;66.43;;
44000;SDS011;29660;42.892;24.710;2024-03-25T18:15:08;98.25;;;68.78;;
44000;SDS011;29660;42.892;24.710;2024-03-25T18:20:29;73.70;;;51.65;;
44000;SDS011;29660;42.892;24.710;2024-03-25T18:25:50;84.38;;;58.42;;
44000;SDS011;29660;42.892;24.710;2024-03-25T18:31:11;80.95;;;60.33;;
44000;SDS011;29660;42.892;24.710;2024-03-25T18:36:33;87.47;;;63.13;;
44000;SDS011;29660;42.892;24.710;2024-03-25T18:41:54;135.65;;;97.45;;
44000;SDS011;29660;42.892;24.710;2024-03-25T18:47:16;169.40;;;113.20;;
44000;SDS011;29660;42.892;24.710;2024-03-25T18:52:37;91.20;;;64.35;;
44000;SDS011;29660;42.892;24.710;2024-03-25T18:57:58;92.78;;;65.03;;
44000;SDS011;29660;42.892;24.710;2024-03-25T19:03:19;190.70;;;131.30;;
44000;SDS011;29660;42.892;24.710;2024-03-25T19:08:40;87.40;;;59.50;;
44000;SDS011;29660;42.892;24.710;2024-03-25T19:14:03;73.65;;;52.17;;
44000;SDS011;29660;42.892;24.710;2024-03-25T19:19:25;61.67;;;40.47;;
44000;SDS011;29660;42.892;24.710;2024-03-25T19:24:46;95.93;;;66.03;;
44000;SDS011;29660;42.892;24.710;2024-03-25T19:30:07;97.70;;;68.45;;
44000;SDS011;29660;42.892;24.710;2024-03-25T19:35:29;167.70;;;114.00;;
44000;SDS011;29660;42.892;24.710;2024-03-25T19:40:50;116.57;;;82.45;;
44000;SDS011;29660;42.892;24.710;2024-03-25T19:46:11;222.82;;;162.68;;
44000;SDS011;29660;42.892;24.710;2024-03-25T19:51:32;121.28;;;85.88;;
44000;SDS011;29660;42.892;24.710;2024-03-25T19:56:54;71.53;;;49.60;;
44000;SDS011;29660;42.892;24.710;2024-03-25T20:02:15;36.05;;;26.85;;
44000;SDS011;29660;42.892;24.710;2024-03-25T20:07:36;71.35;;;46.10;;
44000;SDS011;29660;42.892;24.710;2024-03-25T20:12:57;70.43;;;46.22;;
44000;SDS011;29660;42.892;24.710;2024-03-25T20:18:18;45.33;;;30.80;;
44000;SDS011;29660;42.892;24.710;2024-03-25T20:23:39;49.95;;;33.42;;
44000;SDS011;29660;42.892;24.710;2024-03-25T20:29:00;54.30;;;40.20;;
44000;SDS011;29660;42.892;24.710;2024-03-25T20:34:21;64.57;;;47.63;;
44000;SDS011;29660;42.892;24.710;2024-03-25T20:39:43;24.75;;;19.52;;
44000;SDS011;29660;42.892;24.710;2024-03-25T20:45:04;46.83;;;35.72;;
44000;SDS011;29660;42.892;24.710;2024-03-25T20:50:26;52.00;;;37.00;;
44000;SDS011;29660;42.892;24.710;2024-03-25T20:55:47;36.85;;;23.17;;
44000;SDS011;29660;42.892;24.710;2024-03-25T21:01:08;24.17;;;15.93;;
44000;SDS011;29660;42.892;24.710;2024-03-25T21:06:29;30.83;;;20.75;;
44000;SDS011;29660;42.892;24.710;2024-03-25T21:11:51;39.40;;;25.92;;
44000;SDS011;29660;42.892;24.710;2024-03-25T21:17:12;49.42;;;35.60;;
44000;SDS011;29660;42.892;24.710;2024-03-25T21:22:33;50.05;;;32.83;;
44000;SDS011;29660;42.892;24.710;2024-03-25T21:27:55;30.65;;;22.10;;
44000;SDS011;29660;42.892;24.710;2024-03-25T21:33:16;36.85;;;25.88;;
44000;SDS011;29660;42.892;24.710;2024-03-25T21:38:37;48.55;;;34.40;;
44000;SDS011;29660;42.892;24.710;2024-03-25T21:43:58;58.72;;;43.63;;
44000;SDS011;29660;42.892;24.710;2024-03-25T21:49:19;61.22;;;43.20;;
44000;SDS011;29660;42.892;24.710;2024-03-25T21:54:41;54.20;;;35.70;;
44000;SDS011;29660;42.892;24.710;2024-03-25T22:00:03;40.30;;;27.83;;
44000;SDS011;29660;42.892;24.710;2024-03-25T22:05:29;27.35;;;17.23;;
44000;SDS011;29660;42.892;24.710;2024-03-25T22:10:51;21.35;;;14.88;;
44000;SDS011;29660;42.892;24.710;2024-03-25T22:16:13;34.10;;;21.20;;
44000;SDS011;29660;42.892;24.710;2024-03-25T22:21:34;57.15;;;34.88;;
44000;SDS011;29660;42.892;24.710;2024-03-25T22:26:55;94.10;;;43.05;;
44000;SDS011;29660;42.892;24.710;2024-03-25T22:32:16;44.05;;;26.70;;
44000;SDS011;29660;42.892;24.710;2024-03-25T22:37:38;46.15;;;30.08;;
44000;SDS011;29660;42.892;24.710;2024-03-25T22:42:59;45.95;;;31.58;;
44000;SDS011;29660;42.892;24.710;2024-03-25T22:48:20;49.00;;;31.85;;
44000;SDS011;29660;42.892;24.710;2024-03-25T22:53:42;56.95;;;40.90;;
44000;SDS011;29660;42.892;24.710;2024-03-25T22:59:03;29.02;;;20.55;;
44000;SDS011;29660;42.892;24.710;2024-03-25T23:04:24;33.35;;;23.40;;
44000;SDS011;29660;42.892;24.710;2024-03-25T23:09:45;36.50;;;23.65;;
44000;SDS011;29660;42.892;24.710;2024-03-25T23:15:06;17.83;;;11.68;;
44000;SDS011;29660;42.892;24.710;2024-03-25T23:20:28;21.48;;;13.80;;
44000;SDS011;29660;42.892;24.710;2024-03-25T23:25:49;25.75;;;15.48;;
44000;SDS011;29660;42.892;24.710;2024-03-25T23:31:10;23.13;;;14.45;;
44000;SDS011;29660;42.892;24.710;2024-03-25T23:36:31;14.55;;;9.85;;
44000;SDS011;29660;42.892;24.710;2024-03-25T23:41:52;24.27;;;15.93;;
44000;SDS011;29660;42.892;24.710;2024-03-25T23:47:13;15.88;;;10.82;;
44000;SDS011;29660;42.892;24.710;2024-03-25T23:52:35;19.55;;;12.82;;
44000;SDS011;29660;42.892;24.710;2024-03-25T23:57:56;18.90;;;12.35;;
